Item Display Status Serial CT Sensor

Mooring Depth: 1 m

 

Deployed Sensor

  • Serial Number: 8796
  • NDBC Property Number: 35205
  • Start Date: 8/30/2013 (09:05:00 Z)
  • End Date: 11/16/2014 (18:55:00 Z)
Water Temperature [°C]     6 entries per hour
Showing data from 1/27/2014 (14:50:00 Z) to 1/26/2014 (00:00:01 Z)
Previous Next [ Day | 3-Days | 7-Days ]
First Last
Prev [ Day | 3-Days | 7-Days ] Next
First Last

Start Time:     :
End Time:     :     
Time (in GMT) :00 :50 :40 :30 :20 :10
Previous Next [ Day | 3-Days | 7-Days ]
First Last
Prev [ Day | 3-Days | 7-Days ] Next
First Last


123 => good data
MM => data is determined as missing
-- => data not received/configured
Back to Top Back to Top
1/27/2014 15:00 to 14:10 -- 26.454 26.452 26.441 26.449 26.455
1/27/2014 14:00 to 13:10 26.429 26.453 26.446 26.451 26.451 26.447
1/27/2014 13:00 to 12:10 26.457 26.446 26.458 26.458 26.451 26.455
1/27/2014 12:00 to 11:10 26.451 26.453 26.457 26.461 26.468 26.470
1/27/2014 11:00 to 10:10 26.467 26.471 26.473 26.453 26.477 26.472
1/27/2014 10:00 to 9:10 26.470 26.465 26.474 26.483 26.469 26.477
1/27/2014 09:00 to 8:10 26.469 26.475 26.477 26.481 26.477 26.481
1/27/2014 08:00 to 7:10 26.481 26.474 26.484 26.498 26.495 26.491
1/27/2014 07:00 to 6:10 26.491 26.508 26.509 26.484 26.498 26.501
1/27/2014 06:00 to 5:10 26.515 26.508 26.517 26.525 26.523 26.540
1/27/2014 05:00 to 4:10 26.523 26.527 26.538 26.552 26.555 26.549
1/27/2014 04:00 to 3:10 26.551 26.558 26.561 26.560 26.575 26.577
1/27/2014 03:00 to 2:10 26.564 26.581 26.595 26.585 26.575 26.582
1/27/2014 02:00 to 1:10 26.557 26.580 26.589 26.587 26.568 26.562
1/27/2014 01:00 to 0:10 26.564 26.589 26.559 26.579 26.560 26.560
1/27/2014 00:00 to 23:10 26.562 26.538 26.529 26.541 26.514 26.544
1/26/2014 23:00 to 22:10 26.526 26.506 26.497 26.492 26.502 26.502
1/26/2014 22:00 to 21:10 26.493 26.489 26.470 26.474 26.441 26.476
1/26/2014 21:00 to 20:10 26.449 26.450 26.449 26.438 26.432 26.430
1/26/2014 20:00 to 19:10 26.437 26.427 26.420 26.424 26.418 26.420
1/26/2014 19:00 to 18:10 26.416 26.417 26.412 26.408 26.412 26.409
1/26/2014 18:00 to 17:10 26.410 26.399 26.400 26.398 26.403 26.409
1/26/2014 17:00 to 16:10 26.395 26.402 26.405 26.398 26.406 26.398
1/26/2014 16:00 to 15:10 26.405 26.392 26.399 26.407 26.399 26.411
1/26/2014 15:00 to 14:10 26.423 26.421 26.420 26.428 26.416 26.423
1/26/2014 14:00 to 13:10 26.419 26.411 26.428 26.437 26.434 26.430
1/26/2014 13:00 to 12:10 26.439 26.443 26.430 26.435 26.420 26.430
1/26/2014 12:00 to 11:10 26.429 26.436 26.429 26.419 26.420 26.426
1/26/2014 11:00 to 10:10 26.425 26.433 26.432 26.426 26.439 26.432
1/26/2014 10:00 to 9:10 26.431 26.445 26.424 26.440 26.432 26.432
1/26/2014 09:00 to 8:10 26.441 26.440 26.438 26.451 26.451 26.450
1/26/2014 08:00 to 7:10 26.447 26.468 26.446 26.461 26.456 26.455
1/26/2014 07:00 to 6:10 26.461 26.453 26.455 26.462 26.466 26.463
1/26/2014 06:00 to 5:10 26.460 26.458 26.465 26.470 26.484 26.475
1/26/2014 05:00 to 4:10 26.477 26.492 26.494 26.492 26.499 26.507
1/26/2014 04:00 to 3:10 26.500 26.500 26.515 26.517 26.517 26.528
1/26/2014 03:00 to 2:10 26.536 26.528 26.544 26.536 26.531 26.544
1/26/2014 02:00 to 1:10 26.547 26.547 26.536 26.553 26.537 26.529
1/26/2014 01:00 to 0:10 26.534 26.505 26.538 26.529 26.553 26.519

 

 

 

Conductivity [S/m]     6 entries per hour
Showing data from 1/27/2014 (14:50:00 Z) to 1/26/2014 (00:00:01 Z)
Previous Next [ Day | 3-Days | 7-Days ]
First Last
Prev [ Day | 3-Days | 7-Days ] Next
First Last

Start Time:     :
End Time:     :     
Time (in GMT) :00 :50 :40 :30 :20 :10
Previous Next [ Day | 3-Days | 7-Days ]
First Last
Prev [ Day | 3-Days | 7-Days ] Next
First Last


123 => good data
MM => data is determined as missing
-- => data not received/configured
Back to Top Back to Top
1/27/2014 15:00 to 14:10 -- 5.52132 5.52101 5.51978 5.52088 5.52094
1/27/2014 14:00 to 13:10 5.51962 5.52119 5.52106 5.52089 5.52130 5.52155
1/27/2014 13:00 to 12:10 5.52136 5.52079 5.52150 5.52130 5.52123 5.52143
1/27/2014 12:00 to 11:10 5.52179 5.52147 5.52176 5.52222 5.52285 5.52276
1/27/2014 11:00 to 10:10 5.52230 5.52340 5.52368 5.52161 5.52371 5.52389
1/27/2014 10:00 to 9:10 5.52322 5.52257 5.52376 5.52450 5.52308 5.52391
1/27/2014 09:00 to 8:10 5.52304 5.52409 5.52412 5.52424 5.52379 5.52383
1/27/2014 08:00 to 7:10 5.52493 5.52405 5.52481 5.52611 5.52608 5.52532
1/27/2014 07:00 to 6:10 5.52568 5.52715 5.52772 5.52513 5.52654 5.52651
1/27/2014 06:00 to 5:10 5.52743 5.52810 5.52810 5.52953 5.52887 5.53063
1/27/2014 05:00 to 4:10 5.52888 5.52888 5.53069 5.53170 5.53112 5.53130
1/27/2014 04:00 to 3:10 5.53176 5.53240 5.53268 5.53262 5.53402 5.53422
1/27/2014 03:00 to 2:10 5.53304 5.53447 5.53614 5.53544 5.53429 5.53514
1/27/2014 02:00 to 1:10 5.53251 5.53488 5.53568 5.53498 5.53339 5.53327
1/27/2014 01:00 to 0:10 5.53287 5.53532 5.53192 5.53440 5.53172 5.53215
1/27/2014 00:00 to 23:10 5.53241 5.53002 5.52886 5.53017 5.52739 5.52998
1/26/2014 23:00 to 22:10 5.52752 5.52566 5.52513 5.52548 5.52557 5.52557
1/26/2014 22:00 to 21:10 5.52452 5.52389 5.52196 5.52238 5.51880 5.52205
1/26/2014 21:00 to 20:10 5.51932 5.51967 5.51919 5.51839 5.51758 5.51764
1/26/2014 20:00 to 19:10 5.51788 5.51685 5.51602 5.51650 5.51581 5.51616
1/26/2014 19:00 to 18:10 5.51578 5.51571 5.51526 5.51478 5.51506 5.51477
1/26/2014 18:00 to 17:10 5.51484 5.51453 5.51386 5.51381 5.51403 5.51446
1/26/2014 17:00 to 16:10 5.51372 5.51408 5.51484 5.51380 5.51431 5.51421
1/26/2014 16:00 to 15:10 5.51464 5.51361 5.51402 5.51460 5.51407 5.51511
1/26/2014 15:00 to 14:10 5.51636 5.51606 5.51604 5.51688 5.51601 5.51670
1/26/2014 14:00 to 13:10 5.51718 5.51653 5.51702 5.51793 5.51783 5.51785
1/26/2014 13:00 to 12:10 5.51816 5.51887 5.51788 5.51838 5.51715 5.51751
1/26/2014 12:00 to 11:10 5.51776 5.51826 5.51697 5.51695 5.51711 5.51657
1/26/2014 11:00 to 10:10 5.51703 5.51776 5.51759 5.51710 5.51854 5.51740
1/26/2014 10:00 to 9:10 5.51820 5.51916 5.51770 5.51906 5.51857 5.51817
1/26/2014 09:00 to 8:10 5.51986 5.51888 5.51912 5.51991 5.51996 5.52021
1/26/2014 08:00 to 7:10 5.51972 5.52191 5.52018 5.52127 5.52043 5.52133
1/26/2014 07:00 to 6:10 5.52156 5.52075 5.52090 5.52135 5.52219 5.52148
1/26/2014 06:00 to 5:10 5.52122 5.52150 5.52209 5.52267 5.52357 5.52321
1/26/2014 05:00 to 4:10 5.52352 5.52451 5.52478 5.52476 5.52551 5.52665
1/26/2014 04:00 to 3:10 5.52567 5.52579 5.52727 5.52718 5.52753 5.52854
1/26/2014 03:00 to 2:10 5.52974 5.52875 5.53064 5.52958 5.52909 5.53053
1/26/2014 02:00 to 1:10 5.53063 5.53072 5.52958 5.53107 5.52960 5.52888
1/26/2014 01:00 to 0:10 5.52931 5.52641 5.52963 5.52909 5.53114 5.52793

 

 

 

Salinity [psu]     6 entries per hour
Showing data from 1/27/2014 (14:50:00 Z) to 1/26/2014 (00:00:01 Z)
Previous Next [ Day | 3-Days | 7-Days ]
First Last
Prev [ Day | 3-Days | 7-Days ] Next
First Last

Start Time:     :
End Time:     :     
Time (in GMT) :00 :50 :40 :30 :20 :10
Previous Next [ Day | 3-Days | 7-Days ]
First Last
Prev [ Day | 3-Days | 7-Days ] Next
First Last


123 => good data
MM => data is determined as missing
-- => data not received/configured
Back to Top Back to Top
1/27/2014 15:00 to 14:10 -- 35.45 35.45 35.44 35.45 35.44
1/27/2014 14:00 to 13:10 35.45 35.45 35.45 35.45 35.45 35.45
1/27/2014 13:00 to 12:10 35.44 35.45 35.44 35.44 35.45 35.45
1/27/2014 12:00 to 11:10 35.45 35.45 35.45 35.45 35.45 35.44
1/27/2014 11:00 to 10:10 35.44 35.45 35.45 35.45 35.45 35.45
1/27/2014 10:00 to 9:10 35.45 35.45 35.45 35.45 35.45 35.45
1/27/2014 09:00 to 8:10 35.45 35.45 35.45 35.45 35.45 35.44
1/27/2014 08:00 to 7:10 35.45 35.45 35.45 35.45 35.45 35.45
1/27/2014 07:00 to 6:10 35.45 35.45 35.45 35.45 35.45 35.45
1/27/2014 06:00 to 5:10 35.44 35.45 35.45 35.45 35.45 35.45
1/27/2014 05:00 to 4:10 35.45 35.44 35.45 35.45 35.44 35.45
1/27/2014 04:00 to 3:10 35.45 35.45 35.45 35.45 35.44 35.44
1/27/2014 03:00 to 2:10 35.45 35.44 35.45 35.45 35.45 35.45
1/27/2014 02:00 to 1:10 35.45 35.45 35.45 35.44 35.45 35.45
1/27/2014 01:00 to 0:10 35.45 35.44 35.44 35.44 35.44 35.44
1/27/2014 00:00 to 23:10 35.44 35.44 35.44 35.44 35.44 35.44
1/26/2014 23:00 to 22:10 35.44 35.44 35.44 35.45 35.44 35.44
1/26/2014 22:00 to 21:10 35.44 35.44 35.44 35.44 35.44 35.43
1/26/2014 21:00 to 20:10 35.44 35.44 35.43 35.44 35.44 35.44
1/26/2014 20:00 to 19:10 35.43 35.43 35.43 35.43 35.43 35.43
1/26/2014 19:00 to 18:10 35.44 35.43 35.43 35.43 35.43 35.43
1/26/2014 18:00 to 17:10 35.43 35.44 35.43 35.43 35.43 35.43
1/26/2014 17:00 to 16:10 35.44 35.43 35.44 35.43 35.43 35.44
1/26/2014 16:00 to 15:10 35.44 35.44 35.44 35.43 35.44 35.43
1/26/2014 15:00 to 14:10 35.43 35.43 35.43 35.43 35.44 35.44
1/26/2014 14:00 to 13:10 35.44 35.44 35.44 35.43 35.44 35.44
1/26/2014 13:00 to 12:10 35.44 35.44 35.44 35.44 35.44 35.44
1/26/2014 12:00 to 11:10 35.44 35.44 35.43 35.44 35.44 35.43
1/26/2014 11:00 to 10:10 35.44 35.44 35.44 35.44 35.44 35.44
1/26/2014 10:00 to 9:10 35.44 35.44 35.44 35.44 35.44 35.44
1/26/2014 09:00 to 8:10 35.45 35.44 35.44 35.44 35.44 35.44
1/26/2014 08:00 to 7:10 35.44 35.44 35.44 35.44 35.44 35.45
1/26/2014 07:00 to 6:10 35.44 35.44 35.44 35.44 35.44 35.44
1/26/2014 06:00 to 5:10 35.44 35.44 35.44 35.44 35.44 35.44
1/26/2014 05:00 to 4:10 35.44 35.44 35.44 35.44 35.44 35.44
1/26/2014 04:00 to 3:10 35.44 35.44 35.44 35.44 35.44 35.44
1/26/2014 03:00 to 2:10 35.44 35.44 35.44 35.44 35.44 35.44
1/26/2014 02:00 to 1:10 35.44 35.44 35.44 35.44 35.44 35.44
1/26/2014 01:00 to 0:10 35.44 35.44 35.44 35.44 35.44 35.44